Time;durP1;ratioP1;P1;durP2;ratioP2;P2;SDS_P1;SDS_P2;PMS_P1;PMS_P2;Temp;Humidity;BMP_temperature;BMP_pressure;BME280_temperature;BME280_humidity;BME280_pressure;Samples;Min_cycle;Max_cycle;Signal;HPM_P1;HPM_P2
2022/03/11 00:00:35;;;;;;;65.60;35.55;;;;;;;10.09;39.42;102348.13;5070825;28;20409;-64
2022/03/11 00:03:02;;;;;;;60.28;32.88;;;;;;;10.02;39.55;102350.94;5074122;28;20066;-63
2022/03/11 00:05:29;;;;;;;63.13;35.38;;;;;;;9.93;39.64;102350.31;5074043;28;20060;-64
2022/03/11 00:07:56;;;;;;;60.95;35.65;;;;;;;9.93;39.80;102346.84;5072401;28;20075;-64
2022/03/11 00:10:22;;;;;;;62.33;35.15;;;;;;;9.91;39.89;102346.03;5073009;28;20412;-64
2022/03/11 00:12:49;;;;;;;69.70;37.10;;;;;;;9.92;39.63;102351.22;5072917;28;20052;-64
2022/03/11 00:15:16;;;;;;;62.22;34.95;;;;;;;9.87;39.62;102355.72;5073571;28;20045;-64
2022/03/11 00:17:42;;;;;;;59.63;33.80;;;;;;;9.90;39.65;102366.16;5073852;28;20421;-64
2022/03/11 00:20:09;;;;;;;64.28;35.70;;;;;;;9.86;39.68;102369.75;5072515;28;20106;-64
2022/03/11 00:22:36;;;;;;;63.25;35.05;;;;;;;9.85;39.60;102372.41;5073712;28;20052;-64
2022/03/11 00:25:03;;;;;;;60.60;34.28;;;;;;;9.83;39.77;102382.06;5072577;28;20044;-64
2022/03/11 00:27:30;;;;;;;61.05;34.42;;;;;;;9.79;39.53;102378.69;5073548;28;20094;-64
2022/03/11 00:29:56;;;;;;;63.35;34.60;;;;;;;9.77;39.74;102381.34;5073359;28;20389;-64
2022/03/11 00:32:23;;;;;;;60.78;34.85;;;;;;;9.75;39.61;102380.53;5073455;28;20052;-63
2022/03/11 00:34:50;;;;;;;58.00;32.10;;;;;;;9.71;39.80;102384.13;5073538;28;20094;-64
2022/03/11 00:37:16;;;;;;;62.13;33.05;;;;;;;9.67;39.99;102377.25;5073604;28;20048;-63
2022/03/11 00:39:43;;;;;;;61.10;33.40;;;;;;;9.69;40.26;102382.44;5072267;28;20056;-63
2022/03/11 00:42:10;;;;;;;58.85;33.50;;;;;;;9.67;40.75;102379.88;5073380;28;20090;-63
2022/03/11 00:44:38;;;;;;;57.00;34.67;;;;;;;9.69;41.17;102387.69;5073122;28;20408;-63
2022/03/11 00:47:06;;;;;;;61.90;35.05;;;;;;;9.69;41.75;102390.31;5073277;28;20048;-64
2022/03/11 00:49:33;;;;;;;61.72;35.53;;;;;;;9.69;42.38;102383.31;5073157;28;20051;-64
2022/03/11 00:51:59;;;;;;;64.13;35.97;;;;;;;9.68;43.14;102392.06;5072918;28;20102;-64
2022/03/11 00:54:26;;;;;;;61.42;36.63;;;;;;;9.68;43.70;102388.59;5073215;28;20055;-63
2022/03/11 00:56:53;;;;;;;59.92;35.38;;;;;;;9.67;44.34;102379.88;5071962;28;20111;-63
2022/03/11 00:59:20;;;;;;;66.03;36.80;;;;;;;9.64;44.91;102390.44;5073005;28;20048;-63
2022/03/11 01:01:47;;;;;;;65.50;37.00;;;;;;;9.61;45.59;102385.25;5072861;28;20052;-63
2022/03/11 01:04:14;;;;;;;64.78;37.33;;;;;;;9.64;46.03;102382.59;5072872;28;20080;-64
2022/03/11 01:06:41;;;;;;;61.70;35.80;;;;;;;9.63;46.72;102378.22;5072874;28;20437;-63
2022/03/11 01:09:08;;;;;;;64.90;37.75;;;;;;;9.63;47.10;102380.84;5072897;28;20122;-64
2022/03/11 01:11:35;;;;;;;60.20;34.95;;;;;;;9.61;47.62;102380.91;5071906;28;20500;-63
2022/03/11 01:14:01;;;;;;;58.92;35.72;;;;;;;9.60;47.99;102375.72;5072623;28;20049;-63
2022/03/11 01:16:28;;;;;;;62.35;35.92;;;;;;;9.62;48.48;102381.75;5072714;28;20102;-63
2022/03/11 01:18:55;;;;;;;59.28;35.95;;;;;;;9.63;48.61;102380.84;5072526;28;20041;-63
2022/03/11 01:21:22;;;;;;;59.65;35.08;;;;;;;9.61;48.86;102388.75;5072499;28;20102;-63
2022/03/11 01:23:49;;;;;;;62.30;34.88;;;;;;;9.62;49.24;102384.38;5072468;28;20040;-64
2022/03/11 01:26:16;;;;;;;57.42;34.75;;;;;;;9.61;49.44;102386.13;5072507;28;20464;-64
2022/03/11 01:28:43;;;;;;;60.08;34.63;;;;;;;9.61;49.52;102380.03;5071389;28;20055;-63
2022/03/11 01:31:12;;;;;;;59.15;35.22;;;;;;;9.60;49.69;102384.41;5072008;28;20055;-63
2022/03/11 01:33:40;;;;;;;60.53;35.28;;;;;;;9.60;49.51;102392.28;5072339;28;20044;-63
2022/03/11 01:36:08;;;;;;;61.78;35.10;;;;;;;9.59;49.78;102393.16;5072366;28;20488;-63
2022/03/11 01:38:34;;;;;;;60.30;35.00;;;;;;;9.62;49.90;102392.22;5072169;28;20048;-63
2022/03/11 01:41:02;;;;;;;62.13;35.30;;;;;;;9.58;49.91;102396.69;5072193;28;20044;-63
2022/03/11 01:43:29;;;;;;;55.63;33.92;;;;;;;9.57;50.18;102395.00;5071376;28;20045;-63
2022/03/11 01:45:56;;;;;;;55.65;32.00;;;;;;;9.59;49.83;102394.94;5069799;28;20117;-64
2022/03/11 01:48:23;;;;;;;56.45;32.70;;;;;;;9.58;49.85;102390.59;5072104;28;20135;-63
2022/03/11 01:50:51;;;;;;;54.72;31.95;;;;;;;9.57;50.12;102392.38;5072073;28;20546;-63
2022/03/11 01:53:18;;;;;;;54.63;32.13;;;;;;;9.60;49.98;102394.91;5071774;28;20056;-63
2022/03/11 01:55:44;;;;;;;52.33;31.73;;;;;;;9.57;50.03;102392.38;5072008;28;20045;-63
2022/03/11 01:58:11;;;;;;;54.05;32.38;;;;;;;9.59;49.95;102398.41;5072016;28;20098;-63
2022/03/11 02:00:40;;;;;;;52.75;32.00;;;;;;;9.60;49.95;102397.53;5071456;28;20051;-63
2022/03/11 02:03:07;;;;;;;51.45;30.02;;;;;;;9.63;49.90;102404.44;5072082;28;20140;-63
2022/03/11 02:05:35;;;;;;;54.45;29.67;;;;;;;9.63;49.83;102399.19;5072045;28;20136;-63
2022/03/11 02:08:01;;;;;;;50.72;29.25;;;;;;;9.64;50.05;102407.00;5072227;28;20114;-63
2022/03/11 02:10:30;;;;;;;47.60;27.23;;;;;;;9.64;50.27;102407.00;5072415;28;20169;-64
2022/03/11 02:12:57;;;;;;;45.40;27.38;;;;;;;9.64;50.52;102409.63;5072068;28;20052;-64
2022/03/11 02:15:24;;;;;;;42.67;25.92;;;;;;;9.63;50.47;102405.28;5071504;28;20527;-63
2022/03/11 02:17:51;;;;;;;41.38;25.40;;;;;;;9.66;50.67;102404.34;5071860;28;20040;-64
2022/03/11 02:20:18;;;;;;;42.33;25.35;;;;;;;9.67;50.82;102405.22;5072103;28;20052;-63
2022/03/11 02:22:49;;;;;;;36.40;22.77;;;;;;;9.68;50.93;102406.94;5072067;28;20094;-63
2022/03/11 02:25:15;;;;;;;36.50;21.88;;;;;;;9.70;51.19;102403.38;5071123;28;20048;-63
2022/03/11 02:27:42;;;;;;;36.97;21.48;;;;;;;9.73;51.28;102407.69;5072062;28;20059;-64
2022/03/11 02:30:18;;;;;;;35.58;21.75;;;;;;;9.72;51.27;102404.19;5072159;28;20049;-64
2022/03/11 02:32:45;;;;;;;36.25;21.65;;;;;;;9.73;51.39;102410.31;5070814;28;20098;-63
2022/03/11 02:35:12;;;;;;;34.20;19.70;;;;;;;9.76;51.55;102404.97;5072062;28;20090;-63
2022/03/11 02:37:38;;;;;;;33.63;20.50;;;;;;;9.79;51.73;102395.28;5072064;28;20044;-64
2022/03/11 02:40:06;;;;;;;32.55;19.50;;;;;;;9.78;51.48;102404.03;5071941;28;20060;-64
2022/03/11 02:42:33;;;;;;;32.45;20.58;;;;;;;9.78;51.91;102395.31;5071990;28;20102;-63
2022/03/11 02:45:01;;;;;;;29.77;18.67;;;;;;;9.77;52.06;102396.22;5075596;28;20051;-64
2022/03/11 02:47:28;;;;;;;29.23;18.60;;;;;;;9.78;52.17;102397.94;5075695;28;20045;-63
2022/03/11 02:49:55;;;;;;;32.30;18.38;;;;;;;9.78;52.37;102392.69;5074799;28;20048;-64
2022/03/11 02:52:21;;;;;;;31.63;18.67;;;;;;;9.77;52.46;102397.06;5075591;28;20044;-63
2022/03/11 02:54:49;;;;;;;30.10;18.67;;;;;;;9.78;52.49;102397.94;5075150;28;20048;-64
2022/03/11 02:57:16;;;;;;;33.50;18.58;;;;;;;9.78;52.67;102400.56;5075549;28;20048;-63
2022/03/11 02:59:46;;;;;;;27.65;17.67;;;;;;;9.77;52.57;102401.47;5075492;28;20058;-64
2022/03/11 03:02:13;;;;;;;30.70;17.98;;;;;;;9.78;52.68;102400.56;5075447;28;20075;-64
2022/03/11 03:04:40;;;;;;;28.92;16.90;;;;;;;9.78;52.69;102397.94;5075360;28;20098;-64
2022/03/11 03:07:07;;;;;;;31.80;18.08;;;;;;;9.78;52.77;102404.03;5074294;28;20044;-63
2022/03/11 03:09:41;;;;;;;28.70;18.40;;;;;;;9.82;52.69;102398.72;5075298;28;20056;-64
2022/03/11 03:12:11;;;;;;;32.00;18.67;;;;;;;9.77;52.94;102393.59;5075165;28;20045;-64
2022/03/11 03:14:38;;;;;;;28.73;17.98;;;;;;;9.76;52.77;102397.13;5075115;28;20409;-64
2022/03/11 03:17:05;;;;;;;25.95;17.05;;;;;;;9.77;52.81;102396.22;5075279;28;20098;-64
2022/03/11 03:19:32;;;;;;;27.92;16.85;;;;;;;9.78;52.88;102397.94;5075086;28;20098;-63
2022/03/11 03:21:59;;;;;;;26.35;16.88;;;;;;;9.77;53.01;102393.59;5075226;28;20496;-63
2022/03/11 03:24:26;;;;;;;27.30;17.70;;;;;;;9.78;53.05;102390.94;5074137;28;20467;-64
2022/03/11 03:26:54;;;;;;;28.77;17.52;;;;;;;9.78;53.08;102390.06;5074882;28;20067;-64
2022/03/11 03:29:22;;;;;;;32.15;17.40;;;;;;;9.77;53.04;102393.59;5074906;28;20115;-64
2022/03/11 03:31:49;;;;;;;30.98;18.17;;;;;;;9.77;52.99;102394.44;5074776;28;20481;-63
2022/03/11 03:34:15;;;;;;;28.58;17.38;;;;;;;9.84;52.66;102391.66;5074737;28;20102;-64
2022/03/11 03:36:42;;;;;;;27.55;18.40;;;;;;;9.82;52.72;102391.72;5074793;28;20106;-64
2022/03/11 03:39:08;;;;;;;31.73;18.45;;;;;;;9.79;52.75;102390.03;5074889;28;20052;-64
2022/03/11 03:41:35;;;;;;;27.77;17.77;;;;;;;9.78;52.85;102395.31;5073791;28;20385;-63
2022/03/11 03:44:02;;;;;;;29.67;19.15;;;;;;;9.80;52.77;102397.00;5074660;28;20052;-63
2022/03/11 03:46:28;;;;;;;28.98;18.67;;;;;;;9.79;52.87;102395.28;5074721;28;20048;-65
2022/03/11 03:48:55;;;;;;;32.45;19.45;;;;;;;9.80;52.65;102398.75;5056853;28;20128;-63
2022/03/11 03:51:22;;;;;;;30.50;18.25;;;;;;;9.77;52.86;102399.69;5074584;28;20040;-64
2022/03/11 03:53:48;;;;;;;32.40;18.70;;;;;;;9.76;52.71;102395.38;5073967;28;20053;-64
2022/03/11 03:56:15;;;;;;;34.33;20.23;;;;;;;9.76;52.77;102395.38;5074565;28;20507;-64
2022/03/11 03:58:41;;;;;;;29.58;18.55;;;;;;;9.75;52.55;102400.63;5073696;28;20045;-64
2022/03/11 04:01:08;;;;;;;28.60;19.00;;;;;;;9.77;52.34;102397.06;5074349;28;20056;-63
2022/03/11 04:03:35;;;;;;;28.10;18.45;;;;;;;9.77;52.40;102401.47;5070068;28;20292;-64
2022/03/11 04:06:02;;;;;;;30.73;18.90;;;;;;;9.75;52.40;102398.00;5071055;28;20044;-64
2022/03/11 04:08:30;;;;;;;34.22;19.90;;;;;;;9.75;52.11;102408.50;5070692;28;20098;-64
2022/03/11 04:10:56;;;;;;;34.05;20.20;;;;;;;9.72;52.05;102406.81;5070448;28;20048;-63
2022/03/11 04:13:23;;;;;;;31.67;19.17;;;;;;;9.68;51.80;102405.19;5070716;28;20471;-64
2022/03/11 04:15:50;;;;;;;31.40;20.48;;;;;;;9.67;51.90;102410.47;5069803;28;20044;-64
2022/03/11 04:18:17;;;;;;;29.70;18.98;;;;;;;9.70;51.62;102407.75;5070913;28;20045;-63
2022/03/11 04:20:43;;;;;;;30.23;19.80;;;;;;;9.68;51.40;102406.94;5070672;28;20057;-64
2022/03/11 04:23:10;;;;;;;31.80;19.80;;;;;;;9.68;51.09;102405.19;5070898;28;20052;-64
2022/03/11 04:25:37;;;;;;;33.13;19.73;;;;;;;9.63;50.98;102404.44;5070456;28;20044;-64
2022/03/11 04:28:03;;;;;;;33.40;20.20;;;;;;;9.62;50.76;102406.22;5070224;28;20109;-64
2022/03/11 04:30:30;;;;;;;28.60;19.50;;;;;;;9.62;50.67;102405.34;5069309;28;20114;-64
2022/03/11 04:32:57;;;;;;;29.23;20.13;;;;;;;9.59;50.50;102408.91;5070404;28;20052;-64
2022/03/11 04:35:24;;;;;;;28.10;19.48;;;;;;;9.60;50.36;102404.53;5070475;28;20056;-64
2022/03/11 04:37:50;;;;;;;33.25;20.65;;;;;;;9.61;50.33;102406.22;5070571;28;20048;-64
2022/03/11 04:40:17;;;;;;;32.53;20.33;;;;;;;9.59;50.34;102405.44;5070311;28;20048;-63
2022/03/11 04:42:44;;;;;;;34.00;20.83;;;;;;;9.56;50.22;102413.34;5070174;28;20059;-64
2022/03/11 04:45:10;;;;;;;34.58;21.33;;;;;;;9.57;50.01;102421.19;5070426;28;20052;-64
2022/03/11 04:47:37;;;;;;;30.33;20.88;;;;;;;9.58;50.04;102419.44;5068956;28;20371;-64
2022/03/11 04:50:04;;;;;;;35.85;21.40;;;;;;;9.56;49.79;102414.22;5070536;28;20052;-64
2022/03/11 04:52:31;;;;;;;33.72;21.42;;;;;;;9.56;49.93;102410.72;5069851;28;20075;-64
2022/03/11 04:54:59;;;;;;;32.03;20.92;;;;;;;9.55;49.90;102402.03;5070060;28;20044;-64
2022/03/11 04:57:26;;;;;;;34.03;21.83;;;;;;;9.54;49.87;102410.78;5069758;28;20575;-64
2022/03/11 04:59:53;;;;;;;33.70;21.30;;;;;;;9.53;49.81;102405.59;5070061;28;20060;-64
2022/03/11 05:02:27;;;;;;;36.08;21.63;;;;;;;9.52;49.82;102407.31;5068999;28;20040;-64
2022/03/11 05:04:54;;;;;;;32.28;20.92;;;;;;;9.52;49.64;102409.94;5069813;28;20110;-64
2022/03/11 05:07:22;;;;;;;33.13;21.25;;;;;;;9.47;49.97;102407.47;5069150;28;20045;-64
2022/03/11 05:09:48;;;;;;;33.92;20.90;;;;;;;9.43;50.09;102408.44;5069589;28;20051;-64
2022/03/11 05:12:15;;;;;;;28.90;20.00;;;;;;;9.42;50.01;102416.31;5069621;28;20094;-64
2022/03/11 05:14:41;;;;;;;32.65;21.98;;;;;;;9.39;49.85;102408.53;5069478;28;20059;-64
2022/03/11 05:17:08;;;;;;;40.42;23.55;;;;;;;9.38;49.75;102410.28;5069512;28;20048;-64
2022/03/11 05:19:35;;;;;;;33.35;20.55;;;;;;;9.38;49.82;102419.91;5069116;28;20053;-64
2022/03/11 05:22:02;;;;;;;31.45;19.73;;;;;;;9.39;49.68;102411.16;5069279;28;20045;-64
2022/03/11 05:24:29;;;;;;;28.88;19.83;;;;;;;9.39;49.67;102417.25;5068634;28;20516;-64
2022/03/11 05:26:57;;;;;;;30.75;19.35;;;;;;;9.36;49.63;102419.97;5069228;28;20083;-64
2022/03/11 05:29:24;;;;;;;34.33;19.95;;;;;;;9.36;49.63;102427.81;5069159;28;20056;-64
2022/03/11 05:31:51;;;;;;;29.75;18.98;;;;;;;9.34;49.62;102431.38;5069296;28;20041;-64
2022/03/11 05:34:17;;;;;;;33.35;19.92;;;;;;;9.33;49.70;102427.88;5069424;28;20094;-64
2022/03/11 05:36:44;;;;;;;29.45;19.40;;;;;;;9.34;49.48;102434.84;5068619;28;20052;-64
2022/03/11 05:39:11;;;;;;;29.70;20.10;;;;;;;9.33;49.40;102438.34;5069338;28;20055;-64
2022/03/11 05:41:37;;;;;;;33.22;19.83;;;;;;;9.32;49.39;102431.44;5068897;28;20052;-64
2022/03/11 05:44:05;;;;;;;33.55;20.13;;;;;;;9.27;49.52;102438.53;5069136;28;20052;-64
2022/03/11 05:46:31;;;;;;;31.88;19.00;;;;;;;9.25;49.51;102435.06;5069100;28;20053;-64
2022/03/11 05:48:58;;;;;;;30.08;19.17;;;;;;;9.23;49.41;102440.38;5069096;28;20048;-64
2022/03/11 05:51:25;;;;;;;31.60;20.00;;;;;;;9.24;49.62;102444.72;5069004;28;20044;-64
2022/03/11 05:53:52;;;;;;;31.05;18.88;;;;;;;9.23;49.34;102450.84;5068107;28;20053;-64
2022/03/11 05:56:20;;;;;;;30.92;19.23;;;;;;;9.24;49.48;102451.69;5069186;28;20048;-64
2022/03/11 05:58:49;;;;;;;28.05;18.88;;;;;;;9.24;49.38;102446.44;5068272;28;20041;-63
2022/03/11 06:01:17;;;;;;;12.50;6.95;;;;;;;9.93;49.96;102446.50;5067408;28;20074;-63
2022/03/11 06:03:49;;;;;;;27.00;18.67;;;;;;;10.27;49.63;102456.94;5068982;28;20055;-66
2022/03/11 06:06:25;;;;;;;28.52;17.88;;;;;;;9.85;49.98;102451.91;5067868;28;20055;-64
2022/03/11 06:08:51;;;;;;;28.75;18.58;;;;;;;9.65;50.02;102452.47;5067852;28;20051;-63
2022/03/11 06:11:21;;;;;;;22.40;13.38;;;;;;;10.45;49.49;102447.72;5068850;28;20051;-63
2022/03/11 06:13:48;;;;;;;30.33;18.42;;;;;;;10.13;49.52;102451.19;5068250;28;20113;-63
2022/03/11 06:16:16;;;;;;;30.15;17.63;;;;;;;10.00;49.37;102468.16;5068701;28;20057;-64
2022/03/11 06:18:42;;;;;;;25.25;16.98;;;;;;;10.34;48.57;102462.88;5072526;28;20071;-63
2022/03/11 06:21:09;;;;;;;29.27;17.95;;;;;;;10.06;48.54;102466.25;5073070;28;20564;-65
2022/03/11 06:23:36;;;;;;;26.05;17.33;;;;;;;9.98;48.44;102465.59;5072041;28;20439;-61
2022/03/11 06:26:03;;;;;;;30.45;17.60;;;;;;;9.90;48.41;102464.91;5072952;28;20070;-64
2022/03/11 06:28:30;;;;;;;26.60;16.80;;;;;;;9.86;47.91;102464.13;5072902;28;20075;-63
2022/03/11 06:30:57;;;;;;;23.42;15.70;;;;;;;9.83;48.00;102477.34;5072550;28;20126;-64
2022/03/11 06:33:24;;;;;;;25.08;16.85;;;;;;;9.84;47.89;102472.94;5072588;28;20052;-63
2022/03/11 06:35:51;;;;;;;25.25;16.30;;;;;;;9.85;47.68;102475.53;5072162;28;20041;-62
2022/03/11 06:38:18;;;;;;;24.25;16.05;;;;;;;9.89;47.36;102478.94;5072869;28;20067;-62
2022/03/11 06:40:45;;;;;;;24.27;15.52;;;;;;;9.93;47.43;102480.59;5071683;28;20041;-63
2022/03/11 06:43:12;;;;;;;22.95;15.93;;;;;;;9.93;47.26;102478.81;5072631;28;20055;-64
2022/03/11 06:45:38;;;;;;;24.02;15.30;;;;;;;9.96;47.13;102477.88;5072290;28;20048;-62
2022/03/11 06:48:05;;;;;;;25.75;16.00;;;;;;;9.96;47.07;102481.34;5072586;28;20048;-63
2022/03/11 06:50:32;;;;;;;25.77;15.23;;;;;;;9.97;46.87;102483.06;5072308;28;20097;-63
2022/03/11 06:52:58;;;;;;;28.08;15.20;;;;;;;10.04;47.05;102490.78;5072470;28;20048;-63
2022/03/11 06:55:25;;;;;;;27.23;15.95;;;;;;;10.01;47.06;102491.72;5072111;28;20048;-64
2022/03/11 06:57:51;;;;;;;22.35;14.18;;;;;;;10.12;46.72;102499.34;5071083;28;20094;-65
2022/03/11 07:00:18;;;;;;;22.63;14.77;;;;;;;10.19;46.57;102505.25;5070598;28;20609;-64
2022/03/11 07:02:45;;;;;;;27.75;16.05;;;;;;;10.23;46.48;102506.91;5072157;28;20048;-64
2022/03/11 07:05:12;;;;;;;25.00;16.27;;;;;;;10.21;46.49;102508.69;5072171;28;20123;-63
2022/03/11 07:07:39;;;;;;;16.15;8.35;;;;;;;10.50;46.60;102507.97;5070852;28;20041;-63
2022/03/11 07:10:10;;;;;;;19.77;12.20;;;;;;;11.02;46.83;102508.22;5069488;28;20076;-67
2022/03/11 07:12:37;;;;;;;22.55;14.77;;;;;;;10.98;46.51;102508.34;5070292;28;20071;-64
2022/03/11 07:15:08;;;;;;;22.48;15.25;;;;;;;10.74;46.63;102511.66;5068793;28;20048;-64
2022/03/11 07:17:35;;;;;;;21.25;13.68;;;;;;;10.62;46.63;102506.75;5070994;28;20053;-64
2022/03/11 07:20:04;;;;;;;23.00;14.32;;;;;;;10.58;46.69;102510.38;5071033;28;20044;-64
2022/03/11 07:22:34;;;;;;;22.25;15.13;;;;;;;10.56;46.46;102515.66;5071306;28;20130;-66
2022/03/11 07:25:02;;;;;;;25.05;14.27;;;;;;;10.69;46.12;102518.81;5068972;28;20048;-63
2022/03/11 07:27:29;;;;;;;22.92;14.40;;;;;;;10.66;46.27;102518.03;5071220;28;20052;-64
2022/03/11 07:29:57;;;;;;;23.30;14.30;;;;;;;10.70;46.01;102514.41;5069812;28;20048;-63
2022/03/11 07:32:24;;;;;;;24.98;14.82;;;;;;;10.72;45.50;102515.22;5068617;28;20127;-64
2022/03/11 07:34:51;;;;;;;20.80;13.38;;;;;;;10.69;45.91;102513.53;5070917;28;20166;-65
2022/03/11 07:37:18;;;;;;;20.00;13.68;;;;;;;10.75;45.72;102520.38;5071360;28;20045;-64
2022/03/11 07:39:44;;;;;;;23.60;14.55;;;;;;;10.85;45.49;102521.81;5071008;28;20048;-63
2022/03/11 07:42:12;;;;;;;21.70;14.07;;;;;;;10.89;45.33;102520.84;5070459;28;20056;-63
2022/03/11 07:44:41;;;;;;;21.92;14.18;;;;;;;10.91;45.14;102519.03;5070043;28;20052;-63
2022/03/11 07:47:08;;;;;;;23.13;13.23;;;;;;;11.00;45.11;102519.66;5070645;28;20795;-64
2022/03/11 07:49:35;;;;;;;20.67;13.98;;;;;;;11.08;44.66;102525.53;5071010;28;20044;-63
2022/03/11 07:52:02;;;;;;;22.67;14.40;;;;;;;11.06;44.68;102519.50;5069491;28;20070;-64
2022/03/11 07:54:29;;;;;;;19.90;12.52;;;;;;;11.07;44.57;102523.81;5052569;28;20049;-64
2022/03/11 07:56:56;;;;;;;20.20;13.38;;;;;;;11.10;44.62;102526.38;5070426;28;20045;-63
2022/03/11 07:59:22;;;;;;;19.85;12.98;;;;;;;11.17;44.44;102527.88;5070311;28;20102;-63
2022/03/11 08:01:49;;;;;;;22.92;13.43;;;;;;;11.31;44.18;102537.13;5068613;28;20064;-64
2022/03/11 08:04:17;;;;;;;22.92;12.52;;;;;;;11.42;44.00;102532.41;5067825;28;20086;-62
2022/03/11 08:06:45;;;;;;;20.75;13.70;;;;;;;11.54;43.73;102536.41;5070251;28;20481;-63
2022/03/11 08:09:15;;;;;;;17.45;11.63;;;;;;;11.58;43.46;102532.78;5067374;28;20041;-63
2022/03/11 08:11:44;;;;;;;19.02;11.52;;;;;;;11.60;43.64;102537.09;5069547;28;20049;-64
2022/03/11 08:14:19;;;;;;;21.23;11.80;;;;;;;11.58;43.54;102538.88;5069341;28;20071;-64
2022/03/11 08:16:53;;;;;;;17.60;11.90;;;;;;;11.55;43.49;102541.63;5069931;28;20036;-63
2022/03/11 08:19:23;;;;;;;17.27;10.98;;;;;;;11.53;43.76;102539.94;5067223;28;20049;-63
2022/03/11 08:21:58;;;;;;;17.30;11.32;;;;;;;11.44;43.73;102543.72;5069791;28;20394;-63
2022/03/11 08:24:30;;;;;;;19.70;10.55;;;;;;;11.37;43.86;102547.44;5069676;28;20048;-63
2022/03/11 08:27:00;;;;;;;16.15;10.70;;;;;;;11.46;43.80;102543.69;5069821;28;20049;-65
2022/03/11 08:29:32;;;;;;;23.75;10.93;;;;;;;11.46;43.64;102541.91;5069935;28;20045;-63
2022/03/11 08:32:03;;;;;;;21.65;11.25;;;;;;;11.64;43.21;102544.84;5069744;28;20397;-63
2022/03/11 08:34:30;;;;;;;14.65;10.38;;;;;;;11.61;43.32;102553.69;5069490;28;20639;-63
2022/03/11 08:37:17;;;;;;;15.10;9.95;;;;;;;11.64;43.20;102555.38;5068940;28;20496;-63
2022/03/11 08:39:44;;;;;;;16.50;9.60;;;;;;;11.70;42.99;102545.50;5069775;28;20178;-64
2022/03/11 08:42:10;;;;;;;14.07;8.82;;;;;;;11.77;42.87;102544.41;5068852;28;20178;-63
2022/03/11 08:44:37;;;;;;;17.80;9.63;;;;;;;12.22;41.95;102544.72;5069338;28;20055;-63
2022/03/11 08:47:04;;;;;;;13.50;9.23;;;;;;;12.23;41.88;102549.94;5069129;28;20489;-63
2022/03/11 08:49:30;;;;;;;17.65;10.15;;;;;;;12.32;41.70;102553.16;5069938;28;20103;-63
2022/03/11 08:51:57;;;;;;;14.07;8.98;;;;;;;12.25;41.79;102548.13;5068843;28;20500;-62
2022/03/11 08:54:24;;;;;;;14.60;9.27;;;;;;;12.32;41.52;102543.47;5068473;28;20053;-63
2022/03/11 08:56:53;;;;;;;15.88;9.32;;;;;;;12.33;41.59;102552.22;5068907;28;20080;-63
2022/03/11 08:59:20;;;;;;;19.05;9.43;;;;;;;12.35;41.71;102547.78;5069454;28;20094;-65
2022/03/11 09:01:48;;;;;;;14.13;9.60;;;;;;;12.31;41.40;102547.03;5068819;28;20082;-63
2022/03/11 09:04:14;;;;;;;17.25;9.35;;;;;;;12.42;41.02;102551.94;5069776;28;20052;-65
2022/03/11 09:06:41;;;;;;;16.95;9.85;;;;;;;12.85;40.14;102550.38;5050961;28;20471;-64
2022/03/11 09:09:08;;;;;;;16.05;9.40;;;;;;;12.97;40.03;102548.19;5068277;28;20101;-63
2022/03/11 09:11:35;;;;;;;14.73;9.20;;;;;;;12.92;40.04;102551.00;5068806;28;20113;-63
2022/03/11 09:14:02;;;;;;;15.38;9.48;;;;;;;13.66;38.62;102542.00;5069062;28;20071;-63
2022/03/11 09:16:29;;;;;;;14.10;8.93;;;;;;;13.67;38.62;102547.22;5068613;28;20055;-63
2022/03/11 09:18:56;;;;;;;16.42;10.45;;;;;;;13.27;39.33;102553.19;5068937;28;20455;-64
2022/03/11 09:21:22;;;;;;;21.33;10.23;;;;;;;13.04;39.76;102552.31;5068724;28;20058;-63
2022/03/11 09:23:49;;;;;;;14.07;10.23;;;;;;;13.07;39.55;102545.13;5068688;28;20055;-63
2022/03/11 09:26:16;;;;;;;12.15;6.97;;;;;;;13.76;38.49;102545.97;5068122;28;20075;-63
2022/03/11 09:28:42;;;;;;;33.10;10.25;;;;;;;13.83;38.59;102541.31;5068696;28;20508;-64
2022/03/11 09:31:09;;;;;;;16.40;10.50;;;;;;;13.76;38.73;102545.13;5068359;28;20056;-63
2022/03/11 09:33:38;;;;;;;17.38;9.60;;;;;;;13.76;38.69;102538.06;5068864;28;20040;-65
2022/03/11 09:36:07;;;;;;;13.13;8.80;;;;;;;14.35;37.43;102532.97;5068842;28;20044;-63
2022/03/11 09:38:36;;;;;;;19.75;9.10;;;;;;;14.84;36.49;102535.19;5068551;28;20381;-63
2022/03/11 09:41:04;;;;;;;14.10;8.85;;;;;;;14.56;36.90;102533.78;5067243;28;20075;-65
2022/03/11 09:43:31;;;;;;;16.67;10.35;;;;;;;14.27;37.50;102532.44;5068822;28;20068;-63
2022/03/11 09:45:59;;;;;;;17.88;9.70;;;;;;;14.24;37.51;102532.56;5068936;28;20420;-64
2022/03/11 09:48:26;;;;;;;16.02;8.93;;;;;;;14.15;37.44;102532.03;5068192;28;20051;-63
2022/03/11 09:50:53;;;;;;;15.60;9.48;;;;;;;14.62;36.64;102532.66;5068514;28;20048;-63
2022/03/11 09:53:20;;;;;;;15.15;10.68;;;;;;;14.56;36.44;102531.13;5068503;28;20048;-63
2022/03/11 09:55:47;;;;;;;15.43;9.45;;;;;;;14.72;36.42;102530.50;5068581;28;20068;-63
2022/03/11 09:58:14;;;;;;;15.30;9.73;;;;;;;15.10;35.64;102523.41;5067592;28;20044;-63
2022/03/11 10:00:40;;;;;;;16.02;10.23;;;;;;;15.11;35.66;102522.50;5067705;28;20055;-63
2022/03/11 10:03:07;;;;;;;15.55;9.38;;;;;;;15.13;35.72;102525.91;5068446;28;20515;-63
2022/03/11 10:05:55;;;;;;;16.88;9.60;;;;;;;15.34;35.03;102517.91;5068434;28;20498;-64
2022/03/11 10:08:38;;;;;;;15.88;9.55;;;;;;;16.11;33.89;102508.78;5068259;28;20500;-65
2022/03/11 10:11:26;;;;;;;13.90;9.65;;;;;;;16.37;33.66;102521.63;5067588;28;20056;-64
2022/03/11 10:14:02;;;;;;;13.52;8.77;;;;;;;15.92;34.21;102518.59;5067536;28;20416;-66
2022/03/11 10:16:30;;;;;;;12.95;9.65;;;;;;;16.71;33.19;102523.31;5068481;28;20048;-64
2022/03/11 10:19:04;;;;;;;14.52;9.35;;;;;;;16.55;33.20;102527.72;5068150;28;20048;-64
2022/03/11 10:21:40;;;;;;;15.10;10.32;;;;;;;16.10;34.15;102519.44;5067435;28;20044;-64
2022/03/11 10:24:18;;;;;;;15.57;9.40;;;;;;;17.04;32.43;102526.84;5068660;28;20072;-63
2022/03/11 10:26:55;;;;;;;17.67;9.90;;;;;;;17.64;31.46;102512.84;5068459;28;20044;-64
2022/03/11 10:29:25;;;;;;;15.02;10.02;;;;;;;17.78;31.55;102512.03;5068332;28;20059;-64
2022/03/11 10:31:59;;;;;;;25.17;10.35;;;;;;;18.13;30.60;102516.22;5066147;28;20037;-64
2022/03/11 10:34:27;;;;;;;16.40;9.48;;;;;;;18.28;30.57;102507.31;5067999;28;20651;-64
2022/03/11 10:37:09;;;;;;;13.30;9.40;;;;;;;18.53;30.25;102505.81;5068299;28;20059;-65
2022/03/11 10:39:38;;;;;;;15.65;9.88;;;;;;;18.56;29.93;102509.13;5068422;28;20044;-64
2022/03/11 10:42:21;;;;;;;15.68;9.35;;;;;;;18.70;29.95;102504.72;5067522;28;20495;-66
2022/03/11 10:45:05;;;;;;;17.00;9.77;;;;;;;18.63;29.65;102498.09;5068230;28;20063;-64
2022/03/11 10:47:34;;;;;;;14.23;9.07;;;;;;;18.67;29.42;102499.63;5068118;28;20045;-64
2022/03/11 10:50:06;;;;;;;12.70;9.07;;;;;;;18.55;30.09;102491.47;5066868;28;20060;-64
2022/03/11 10:52:34;;;;;;;13.82;9.27;;;;;;;18.39;30.14;102491.56;5067559;28;20060;-65
2022/03/11 10:55:29;;;;;;;16.75;9.90;;;;;;;18.60;29.35;102484.06;5067588;28;20052;-64
2022/03/11 10:57:58;;;;;;;13.70;8.80;;;;;;;18.86;29.27;102478.88;5067883;28;20051;-64
2022/03/11 11:00:27;;;;;;;11.52;9.23;;;;;;;18.90;29.24;102483.06;5067440;28;20041;-64
2022/03/11 11:02:55;;;;;;;15.38;9.05;;;;;;;18.95;28.58;102482.78;5067261;28;20053;-64
2022/03/11 11:05:24;;;;;;;13.52;9.50;;;;;;;19.03;28.43;102485.81;5069650;28;20539;-64
2022/03/11 11:07:51;;;;;;;12.85;9.13;;;;;;;19.19;28.35;102477.66;5071683;28;20442;-64
2022/03/11 11:10:20;;;;;;;14.75;9.35;;;;;;;19.39;28.06;102472.84;5070381;28;20086;-65
2022/03/11 11:12:48;;;;;;;11.98;7.22;;;;;;;19.40;28.41;102471.88;5069763;28;20052;-67
2022/03/11 11:15:15;;;;;;;12.05;7.80;;;;;;;19.41;28.61;102470.91;5068392;28;20056;-66
2022/03/11 11:17:49;;;;;;;14.02;8.45;;;;;;;19.56;28.92;102463.72;5071302;28;20064;-64